Kezdőlap
METAR-TAF:

METAR-TAF

Repülőterek :

Willmar Municipal Airport (John L. Rice Field)

Willmar, Minnesota, Amerikai Egyesült Államok

földrajzi szélesség: 45-07N, földrajzi hosszúság: 095-05W, magasság: 344 m

Jelenlegi meteorológiai megfigyelések

A jelentés 15 perccel ezelõtt készült, 08:35 UTC
Északi szél 11 kt
Hőmérséklet 22°C
Páratartalom 60%
Légköri nyomás 1014 hPa
Látótávolság: 16.1 km
Szórványos felhőzet 4300 lábon

METAR: KBDH 100835Z AUTO 35011KT 10SM SCT043 22/14 A2995 RMK AO2 LTG DSNT NE AND SE

Idő: 03:50 (08:50 UTC)


TAF: hiányzik

Meteorológiai megfigyelések és előrejelzések több, mint 4000 repülőtéren (METAR és TAF jelentéseket).

A térképen piros és sárga pontok jelzik az elérhető meteorológiai állomásokat.

Mozgassa az egeret a pont fölött, hogy megjelenjen az állomás neve.

Azután kattintson az időjárási megfigyelések és előrejelzések megtekintéséhez.

A térkép megváltoztatása: kattintson a fekete keresztel jelölt zöld gombra ráközelítéshez, a vonallal jelölt zöld gombra távolításhoz, vagy a zöld nyilakra a szomszédos térképek eléréséhez.


METAR-TAF: